createdAt,value
2022-08-03T00:00:26.576Z,55.84
2022-08-03T00:02:53.955Z,56.04
2022-08-03T00:05:20.854Z,56.28
2022-08-03T00:07:49.402Z,56.32
2022-08-03T00:10:16.943Z,56.53
2022-08-03T00:12:43.787Z,56.44
2022-08-03T00:15:15.232Z,56.50
2022-08-03T00:17:53.613Z,56.55
2022-08-03T00:20:21.986Z,56.55
2022-08-03T00:22:49.272Z,57.19
2022-08-03T00:25:16.316Z,57.08
2022-08-03T00:27:42.947Z,56.88
2022-08-03T00:30:09.853Z,57.26
2022-08-03T00:32:36.475Z,57.35
2022-08-03T00:35:07.977Z,57.53
2022-08-03T00:37:40.610Z,57.28
2022-08-03T00:40:12.656Z,57.47
2022-08-03T00:42:53.710Z,57.31
2022-08-03T00:45:41.406Z,57.48
2022-08-03T00:48:29.772Z,57.71
2022-08-03T00:50:56.074Z,58.11
2022-08-03T00:53:22.822Z,58.07
2022-08-03T00:55:49.388Z,57.85
2022-08-03T00:58:16.162Z,58.09
2022-08-03T01:00:43.066Z,57.74
2022-08-03T01:03:10.744Z,58.32
2022-08-03T01:05:45.527Z,57.99
2022-08-03T01:08:24.276Z,58.08
2022-08-03T01:11:12.123Z,58.37
2022-08-03T01:14:01.509Z,58.39
2022-08-03T01:16:58.967Z,58.70
2022-08-03T01:19:34.533Z,58.59
2022-08-03T01:22:37.368Z,59.23
2022-08-03T01:25:25.163Z,59.28
2022-08-03T01:28:18.139Z,59.56
2022-08-03T01:30:46.726Z,59.50
2022-08-03T01:33:20.198Z,59.79
2022-08-03T01:35:53.356Z,59.73
2022-08-03T01:38:28.914Z,60.15
2022-08-03T01:40:56.836Z,60.34
2022-08-03T01:44:26.898Z,60.33
2022-08-03T01:46:17.192Z,60.37
2022-08-03T01:48:46.180Z,60.59
2022-08-03T01:51:15.733Z,60.73
2022-08-03T01:53:42.976Z,60.87
2022-08-03T01:56:10.604Z,60.75
2022-08-03T01:58:39.706Z,60.77
2022-08-03T02:01:07.765Z,60.94
2022-08-03T02:03:38.335Z,61.19
2022-08-03T02:07:01.100Z,61.13
2022-08-03T02:09:15.071Z,61.28
2022-08-03T02:11:43.574Z,61.26
2022-08-03T02:14:11.133Z,61.77
2022-08-03T02:16:38.112Z,62.31
2022-08-03T02:19:07.465Z,61.80
2022-08-03T02:21:57.494Z,61.93
2022-08-03T02:24:24.119Z,62.00
2022-08-03T02:26:53.249Z,61.97
2022-08-03T02:29:40.310Z,62.09
2022-08-03T02:32:12.507Z,62.27
2022-08-03T02:34:40.366Z,62.27
2022-08-03T02:37:08.655Z,62.24
2022-08-03T02:39:36.813Z,62.41
2022-08-03T02:42:06.497Z,62.30
2022-08-03T02:44:35.025Z,62.51
2022-08-03T02:47:07.139Z,62.43
2022-08-03T02:49:50.678Z,62.44
2022-08-03T02:52:21.449Z,62.84
2022-08-03T02:54:51.184Z,62.54
2022-08-03T02:57:19.944Z,62.65
2022-08-03T02:59:47.626Z,62.67
2022-08-03T03:02:17.078Z,62.88
2022-08-03T03:05:50.953Z,62.97
2022-08-03T03:07:50.465Z,63.06
2022-08-03T03:10:23.310Z,63.41
2022-08-03T03:12:56.805Z,63.47
2022-08-03T03:15:27.854Z,63.38
2022-08-03T03:17:55.485Z,63.35
2022-08-03T03:20:29.055Z,63.38
2022-08-03T03:23:00.175Z,63.31
2022-08-03T03:25:28.842Z,63.53
2022-08-03T03:27:55.679Z,63.51
2022-08-03T03:30:24.826Z,63.67
2022-08-03T03:32:52.586Z,63.61
2022-08-03T03:35:19.517Z,63.72
2022-08-03T03:37:46.335Z,63.73
2022-08-03T03:40:14.424Z,63.73
2022-08-03T03:42:41.606Z,64.01
2022-08-03T03:45:09.031Z,64.06
2022-08-03T03:47:36.056Z,64.12
2022-08-03T03:50:06.723Z,64.08
2022-08-03T03:52:34.275Z,64.21
2022-08-03T03:55:01.667Z,64.46
2022-08-03T03:57:29.451Z,64.27
2022-08-03T03:59:56.350Z,64.49
2022-08-03T04:02:23.075Z,64.50
2022-08-03T04:05:08.233Z,64.82
2022-08-03T04:08:14.528Z,64.50
2022-08-03T04:10:59.083Z,64.58
2022-08-03T04:13:29.549Z,64.32
2022-08-03T04:15:58.379Z,64.77
2022-08-03T04:18:28.173Z,64.87
2022-08-03T04:21:01.586Z,64.95
2022-08-03T04:23:31.317Z,65.06
2022-08-03T04:25:59.387Z,65.05
2022-08-03T04:28:31.130Z,65.06
2022-08-03T04:31:01.037Z,65.05
2022-08-03T04:33:31.177Z,64.78
2022-08-03T04:36:03.462Z,65.02
2022-08-03T04:38:36.710Z,64.84
2022-08-03T04:41:04.160Z,64.94
2022-08-03T04:43:34.245Z,65.00
2022-08-03T04:46:02.698Z,64.93
2022-08-03T04:48:29.390Z,65.03
2022-08-03T04:50:56.357Z,64.93
2022-08-03T04:53:23.271Z,64.74
2022-08-03T04:55:49.882Z,64.74
2022-08-03T04:58:16.467Z,63.55
2022-08-03T05:00:43.408Z,61.83
2022-08-03T05:03:23.521Z,60.49
2022-08-03T05:06:01.670Z,59.75
2022-08-03T05:08:28.935Z,58.48
2022-08-03T05:10:59.291Z,58.10
2022-08-03T05:13:26.333Z,57.39
2022-08-03T05:15:52.956Z,56.90
2022-08-03T05:18:19.965Z,56.92
2022-08-03T05:20:46.662Z,56.31
2022-08-03T05:23:13.236Z,55.89
2022-08-03T05:25:39.832Z,55.57
2022-08-03T05:28:12.807Z,55.06
2022-08-03T05:30:39.360Z,54.71
2022-08-03T05:33:05.886Z,54.67
2022-08-03T05:35:57.475Z,54.85
2022-08-03T05:38:28.084Z,54.89
2022-08-03T05:41:23.701Z,54.67
2022-08-03T05:43:44.911Z,54.17
2022-08-03T05:46:12.934Z,53.69
2022-08-03T05:48:41.228Z,53.35
2022-08-03T05:51:11.681Z,53.26
2022-08-03T05:53:43.007Z,53.58
2022-08-03T05:56:13.758Z,53.98
2022-08-03T05:58:43.671Z,54.29
2022-08-03T06:01:10.293Z,54.48
2022-08-03T06:03:36.904Z,54.52
2022-08-03T06:06:03.556Z,54.76
2022-08-03T06:08:30.125Z,54.60
2022-08-03T06:10:56.636Z,54.35
2022-08-03T06:13:23.299Z,54.41
2022-08-03T06:15:49.868Z,53.96
2022-08-03T06:18:16.456Z,53.75
2022-08-03T06:20:43.383Z,53.31
2022-08-03T06:23:15.942Z,52.99
2022-08-03T06:25:43.303Z,52.69
2022-08-03T06:28:19.055Z,52.35
2022-08-03T06:30:55.894Z,51.93
2022-08-03T06:33:26.294Z,51.24
2022-08-03T06:36:12.856Z,50.53
2022-08-03T06:38:39.416Z,50.73
2022-08-03T06:41:05.930Z,50.69
2022-08-03T06:43:35.985Z,50.38
2022-08-03T06:46:02.683Z,50.15
2022-08-03T06:48:29.258Z,50.53
2022-08-03T06:50:55.854Z,50.38
2022-08-03T06:53:22.645Z,50.40
2022-08-03T06:55:54.241Z,49.92
2022-08-03T06:58:21.421Z,50.06
2022-08-03T07:00:48.053Z,49.95
2022-08-03T07:03:15.180Z,50.23
2022-08-03T07:05:42.774Z,49.79
2022-08-03T07:08:10.471Z,49.93
2022-08-03T07:10:37.327Z,49.72
2022-08-03T07:13:05.382Z,49.42
2022-08-03T07:15:38.430Z,49.06
2022-08-03T07:18:29.289Z,48.26
2022-08-03T07:20:58.683Z,47.85
2022-08-03T07:23:25.754Z,48.01
2022-08-03T07:25:52.626Z,47.47
2022-08-03T07:28:20.017Z,46.41
2022-08-03T07:30:47.790Z,45.53
2022-08-03T07:33:15.220Z,45.55
2022-08-03T07:35:42.359Z,45.57
2022-08-03T07:38:08.933Z,45.67
2022-08-03T07:40:35.540Z,45.00
2022-08-03T07:43:03.436Z,43.64
2022-08-03T07:45:31.726Z,43.64
2022-08-03T07:47:58.408Z,44.38
2022-08-03T07:50:25.516Z,44.39
2022-08-03T07:52:53.634Z,44.30
2022-08-03T07:55:22.607Z,43.90
2022-08-03T07:58:10.113Z,43.71
2022-08-03T08:00:36.907Z,41.98
2022-08-03T08:03:04.799Z,42.35
2022-08-03T08:05:32.001Z,42.15
2022-08-03T08:07:58.614Z,41.84
2022-08-03T08:10:25.239Z,41.15
2022-08-03T08:12:52.403Z,41.22
2022-08-03T08:15:19.087Z,41.05
2022-08-03T08:17:49.497Z,40.63
2022-08-03T08:20:25.183Z,40.76
2022-08-03T08:22:57.110Z,40.09
2022-08-03T08:25:25.100Z,39.59
2022-08-03T08:28:22.194Z,39.18
2022-08-03T08:30:38.527Z,39.36
2022-08-03T08:33:05.158Z,38.76
2022-08-03T08:35:31.770Z,38.98
2022-08-03T08:38:00.350Z,38.89
2022-08-03T08:40:32.400Z,39.16
2022-08-03T08:42:59.315Z,38.58
2022-08-03T08:45:26.601Z,38.83
2022-08-03T08:48:00.824Z,38.14
2022-08-03T08:50:29.748Z,37.59
2022-08-03T08:53:00.384Z,36.70
2022-08-03T08:55:27.069Z,36.43
2022-08-03T08:58:01.564Z,36.38
2022-08-03T09:00:28.217Z,36.08
2022-08-03T09:02:54.885Z,35.86
2022-08-03T09:05:35.721Z,35.41
2022-08-03T09:08:08.158Z,35.56
2022-08-03T09:10:35.338Z,35.21
2022-08-03T09:13:02.096Z,34.19
2022-08-03T09:15:31.665Z,34.35
2022-08-03T09:18:03.157Z,33.89
2022-08-03T09:20:35.104Z,33.37
2022-08-03T09:23:44.701Z,32.85
2022-08-03T09:25:58.305Z,32.35
2022-08-03T09:28:57.986Z,32.30
2022-08-03T09:31:43.779Z,32.28
2022-08-03T09:34:12.764Z,31.61
2022-08-03T09:36:39.326Z,31.81
2022-08-03T09:39:10.999Z,31.67
2022-08-03T09:41:42.825Z,31.67
2022-08-03T09:44:24.008Z,31.47
2022-08-03T09:46:56.685Z,31.42
2022-08-03T09:49:24.506Z,31.33
2022-08-03T09:52:31.919Z,31.24
2022-08-03T09:54:38.470Z,31.21
2022-08-03T09:57:05.266Z,30.94
2022-08-03T09:59:33.300Z,30.39
2022-08-03T10:02:00.674Z,30.41
2022-08-03T10:04:27.789Z,30.47
2022-08-03T10:07:07.010Z,30.28
2022-08-03T10:09:33.752Z,30.12
2022-08-03T10:12:11.639Z,29.97
2022-08-03T10:14:41.918Z,29.66
2022-08-03T10:17:09.870Z,29.43
2022-08-03T10:19:36.825Z,29.27
2022-08-03T10:22:14.016Z,29.40
2022-08-03T10:24:52.534Z,28.93
2022-08-03T10:27:20.661Z,29.06
2022-08-03T10:29:54.564Z,29.20
2022-08-03T10:32:58.508Z,28.96
2022-08-03T10:35:26.192Z,29.10
2022-08-03T10:38:00.533Z,28.77
2022-08-03T10:43:22.929Z,28.75
2022-08-03T10:45:50.474Z,28.70
2022-08-03T10:48:18.857Z,27.75
2022-08-03T10:50:46.842Z,27.82
2022-08-03T10:53:14.694Z,27.93
2022-08-03T10:56:03.539Z,27.58
2022-08-03T10:58:53.128Z,27.37
2022-08-03T11:01:58.262Z,27.32
2022-08-03T11:04:27.246Z,27.24
2022-08-03T11:07:26.557Z,26.91
2022-08-03T11:09:55.437Z,26.76
2022-08-03T11:12:29.938Z,26.57
2022-08-03T11:15:02.278Z,26.35
2022-08-03T11:17:29.154Z,26.22
2022-08-03T11:19:57.227Z,26.30
2022-08-03T11:22:25.447Z,26.11
2022-08-03T11:24:54.186Z,25.98
2022-08-03T11:27:23.013Z,25.86
2022-08-03T11:30:03.601Z,26.06
2022-08-03T11:32:46.487Z,26.35
2022-08-03T11:35:27.663Z,25.94
2022-08-03T11:38:03.221Z,26.11
2022-08-03T11:40:44.607Z,25.65
2022-08-03T11:43:30.787Z,25.25
2022-08-03T11:46:06.729Z,25.17
2022-08-03T11:48:37.909Z,25.77
2022-08-03T11:51:18.702Z,25.88
2022-08-03T11:53:47.815Z,25.54
2022-08-03T11:56:14.454Z,25.17
2022-08-03T11:59:19.417Z,24.60
2022-08-03T12:01:41.995Z,24.49
2022-08-03T12:04:08.670Z,24.86
2022-08-03T12:06:54.890Z,24.75
2022-08-03T12:09:21.987Z,24.06
2022-08-03T12:11:59.994Z,24.07
2022-08-03T12:14:50.040Z,24.21
2022-08-03T12:17:14.891Z,23.79
2022-08-03T12:19:44.628Z,24.10
2022-08-03T12:22:11.260Z,23.60
2022-08-03T12:24:46.848Z,23.67
2022-08-03T12:27:23.273Z,23.97
2022-08-03T12:29:58.451Z,23.57
2022-08-03T12:32:26.548Z,23.85
2022-08-03T12:34:53.249Z,23.43
2022-08-03T12:37:23.356Z,22.97
2022-08-03T12:40:02.981Z,23.15
2022-08-03T12:42:32.996Z,22.93
2022-08-03T12:44:59.614Z,23.13
2022-08-03T12:47:26.145Z,22.77
2022-08-03T12:49:53.954Z,23.28
2022-08-03T12:52:23.164Z,23.16
2022-08-03T12:54:57.011Z,22.95
2022-08-03T12:57:24.740Z,23.42
2022-08-03T12:59:55.668Z,22.89
2022-08-03T13:02:24.724Z,22.51
2022-08-03T13:04:53.074Z,22.37
2022-08-03T13:07:21.127Z,23.27
2022-08-03T13:09:55.287Z,23.18
2022-08-03T13:12:27.528Z,22.82
2022-08-03T13:15:00.877Z,23.18
2022-08-03T13:17:27.936Z,22.90
2022-08-03T13:19:54.831Z,22.69
2022-08-03T13:22:29.020Z,21.93
2022-08-03T13:24:57.713Z,22.14
2022-08-03T13:28:03.509Z,22.04
2022-08-03T13:30:12.151Z,22.09
2022-08-03T13:32:38.878Z,22.02
2022-08-03T13:35:06.152Z,22.17
2022-08-03T13:37:33.053Z,21.62
2022-08-03T13:40:03.226Z,21.43
2022-08-03T13:42:33.072Z,21.20
2022-08-03T13:45:00.787Z,21.46
2022-08-03T13:47:28.245Z,21.19
2022-08-03T13:50:00.802Z,20.75
2022-08-03T13:52:33.289Z,20.89
2022-08-03T13:55:00.297Z,20.72
2022-08-03T13:58:03.079Z,20.27
2022-08-03T14:00:26.542Z,20.18
2022-08-03T14:03:02.743Z,19.91
2022-08-03T14:05:32.079Z,19.77
2022-08-03T14:08:04.705Z,19.68
2022-08-03T14:10:36.843Z,19.35
2022-08-03T14:13:04.324Z,19.00
2022-08-03T14:15:31.401Z,18.90
2022-08-03T14:17:58.481Z,18.63
2022-08-03T14:20:37.773Z,17.50
2022-08-03T14:23:14.119Z,17.76
2022-08-03T14:25:43.511Z,17.25
2022-08-03T14:28:23.128Z,17.07
2022-08-03T14:30:51.281Z,16.67
2022-08-03T14:33:17.965Z,16.22
2022-08-03T14:35:44.580Z,15.45
2022-08-03T14:38:11.180Z,16.08
2022-08-03T14:40:37.965Z,15.61
2022-08-03T14:43:04.541Z,15.35
2022-08-03T14:45:31.303Z,15.29
2022-08-03T14:50:30.058Z,14.70
2022-08-03T14:50:51.353Z,14.31
2022-08-03T14:53:18.284Z,15.19
2022-08-03T14:55:50.089Z,14.60
2022-08-03T14:58:20.604Z,14.77
2022-08-03T15:00:47.324Z,14.38
2022-08-03T15:03:16.599Z,14.53
2022-08-03T15:05:43.967Z,14.23
2022-08-03T15:08:10.392Z,14.25
2022-08-03T15:10:44.358Z,13.34
2022-08-03T15:13:13.322Z,12.69
2022-08-03T15:15:40.971Z,13.04
2022-08-03T15:18:08.013Z,12.58
2022-08-03T15:20:50.172Z,12.45
2022-08-03T15:23:17.878Z,12.70
2022-08-03T15:26:03.787Z,12.34
2022-08-03T15:28:32.834Z,12.32
2022-08-03T15:30:59.839Z,12.13
2022-08-03T15:33:26.426Z,11.60
2022-08-03T15:35:53.382Z,12.36
2022-08-03T15:38:26.268Z,11.96
2022-08-03T15:40:54.623Z,11.69
2022-08-03T15:43:22.699Z,12.26
2022-08-03T15:45:54.611Z,12.33
2022-08-03T15:48:36.116Z,12.03
2022-08-03T15:51:02.717Z,12.51
2022-08-03T15:53:29.272Z,12.40
2022-08-03T15:55:55.894Z,12.29
2022-08-03T15:59:09.293Z,12.29
2022-08-03T16:01:09.206Z,12.11
2022-08-03T16:03:35.910Z,12.05
2022-08-03T16:06:04.127Z,12.05
2022-08-03T16:08:31.118Z,12.31
2022-08-03T16:10:58.983Z,12.34
2022-08-03T16:14:11.960Z,12.13
2022-08-03T16:16:13.581Z,12.25
2022-08-03T16:18:40.179Z,12.05
2022-08-03T16:21:06.915Z,12.08
2022-08-03T16:23:39.628Z,12.24
2022-08-03T16:26:09.535Z,11.93
2022-08-03T16:28:38.173Z,11.85
2022-08-03T16:31:06.243Z,11.73
2022-08-03T16:33:33.671Z,12.02
2022-08-03T16:36:00.548Z,12.16
2022-08-03T16:38:27.117Z,11.68
2022-08-03T16:40:53.679Z,11.80
2022-08-03T16:43:22.434Z,11.68
2022-08-03T16:45:49.298Z,11.87
2022-08-03T16:48:17.332Z,11.64
2022-08-03T16:50:44.520Z,11.71
2022-08-03T16:53:16.468Z,11.75
2022-08-03T16:55:52.372Z,11.64
2022-08-03T16:58:34.801Z,11.55
2022-08-03T17:01:24.201Z,11.65
2022-08-03T17:04:03.491Z,11.71
2022-08-03T17:06:36.158Z,12.08
2022-08-03T17:09:18.203Z,12.02
2022-08-03T17:11:47.836Z,11.96
2022-08-03T17:14:28.399Z,12.21
2022-08-03T17:17:00.992Z,12.42
2022-08-03T17:19:31.200Z,12.72
2022-08-03T17:22:01.613Z,13.76
2022-08-03T17:24:41.487Z,13.90
2022-08-03T17:28:41.998Z,15.03
2022-08-03T17:30:10.079Z,15.52
2022-08-03T17:32:42.231Z,15.81
2022-08-03T17:35:10.456Z,16.26
2022-08-03T17:37:57.557Z,16.74
2022-08-03T17:40:23.793Z,17.10
2022-08-03T17:42:51.073Z,17.86
2022-08-03T17:45:18.083Z,18.48
2022-08-03T17:47:45.497Z,18.52
2022-08-03T17:50:33.081Z,19.07
2022-08-03T17:53:15.179Z,19.72
2022-08-03T17:55:59.577Z,20.62
2022-08-03T17:59:14.422Z,21.82
2022-08-03T18:02:30.469Z,22.26
2022-08-03T18:05:16.657Z,22.97
2022-08-03T18:08:01.619Z,23.22
2022-08-03T18:10:35.732Z,23.54
2022-08-03T18:13:14.579Z,24.12
2022-08-03T18:16:01.816Z,24.43
2022-08-03T18:18:36.491Z,24.54
2022-08-03T18:21:09.295Z,24.77
2022-08-03T18:23:44.548Z,25.55
2022-08-03T18:26:17.112Z,25.58
2022-08-03T18:28:44.601Z,25.77
2022-08-03T18:31:13.259Z,26.19
2022-08-03T18:34:16.308Z,26.16
2022-08-03T18:36:48.983Z,26.29
2022-08-03T18:39:15.993Z,26.57
2022-08-03T18:41:46.632Z,26.93
2022-08-03T18:44:52.821Z,27.13
2022-08-03T18:47:16.987Z,27.17
2022-08-03T18:49:52.846Z,27.36
2022-08-03T18:52:31.759Z,27.62
2022-08-03T18:55:19.794Z,27.52
2022-08-03T18:57:55.522Z,28.05
2022-08-03T19:00:42.598Z,28.20
2022-08-03T19:03:20.703Z,28.68
2022-08-03T19:06:08.619Z,28.73
2022-08-03T19:09:16.910Z,29.13
2022-08-03T19:12:26.140Z,29.15
2022-08-03T19:14:43.520Z,29.65
2022-08-03T19:17:12.536Z,29.85
2022-08-03T19:19:44.900Z,30.12
2022-08-03T19:22:16.253Z,30.34
2022-08-03T19:24:45.835Z,30.71
2022-08-03T19:27:13.430Z,30.68
2022-08-03T19:29:59.435Z,31.30
2022-08-03T19:32:29.745Z,31.52
2022-08-03T19:34:59.465Z,31.16
2022-08-03T19:37:38.619Z,31.84
2022-08-03T19:40:12.368Z,31.59
2022-08-03T19:42:43.875Z,32.03
2022-08-03T19:45:14.796Z,32.01
2022-08-03T19:47:45.777Z,32.10
2022-08-03T19:50:14.327Z,32.07
2022-08-03T19:52:43.896Z,32.54
2022-08-03T19:55:12.517Z,32.32
2022-08-03T19:57:42.285Z,32.43
2022-08-03T20:00:12.516Z,32.76
2022-08-03T20:02:41.218Z,32.74
2022-08-03T20:05:15.495Z,32.93
2022-08-03T20:07:47.840Z,33.09
2022-08-03T20:10:16.640Z,33.44
2022-08-03T20:12:45.336Z,33.19
2022-08-03T20:15:12.330Z,33.17
2022-08-03T20:17:55.994Z,33.38
2022-08-03T20:20:31.165Z,33.27
2022-08-03T20:22:59.566Z,33.48
2022-08-03T20:25:57.038Z,33.80
2022-08-03T20:28:50.048Z,33.60
2022-08-03T20:31:36.179Z,34.02
2022-08-03T20:34:03.593Z,34.19
2022-08-03T20:36:30.313Z,34.03
2022-08-03T20:38:58.194Z,34.35
2022-08-03T20:41:25.146Z,34.38
2022-08-03T20:43:51.729Z,34.45
2022-08-03T20:46:28.993Z,34.73
2022-08-03T20:48:58.814Z,35.09
2022-08-03T20:51:50.083Z,35.24
2022-08-03T20:54:29.388Z,35.58
2022-08-03T20:57:03.704Z,35.50
2022-08-03T20:59:46.838Z,35.66
2022-08-03T21:02:29.531Z,36.27
2022-08-03T21:04:59.321Z,35.84
2022-08-03T21:07:45.905Z,36.51
2022-08-03T21:10:21.303Z,36.73
2022-08-03T21:13:14.084Z,36.83
2022-08-03T21:16:11.893Z,36.74
2022-08-03T21:18:38.010Z,36.95
2022-08-03T21:21:07.043Z,36.79
2022-08-03T21:23:47.828Z,36.94
2022-08-03T21:26:16.753Z,37.39
2022-08-03T21:28:45.192Z,37.46
2022-08-03T21:31:12.477Z,37.84
2022-08-03T21:33:40.860Z,37.51
2022-08-03T21:36:11.030Z,37.61
2022-08-03T21:38:37.734Z,37.43
2022-08-03T21:41:04.394Z,37.52
2022-08-03T21:43:31.003Z,37.52
2022-08-03T21:46:05.772Z,37.65
2022-08-03T21:48:40.905Z,38.12
2022-08-03T21:51:12.240Z,38.36
2022-08-03T21:54:02.224Z,38.42
2022-08-03T21:56:29.488Z,38.45
2022-08-03T21:59:05.018Z,38.61
2022-08-03T22:01:35.567Z,38.81
2022-08-03T22:04:06.855Z,39.14
2022-08-03T22:06:33.873Z,39.39
2022-08-03T22:09:00.712Z,39.06
2022-08-03T22:11:27.738Z,39.45
2022-08-03T22:13:54.610Z,39.62
2022-08-03T22:16:21.642Z,39.71
2022-08-03T22:18:48.356Z,40.01
2022-08-03T22:21:16.902Z,40.13
2022-08-03T22:23:56.883Z,40.10
2022-08-03T22:26:34.700Z,40.39
2022-08-03T22:29:06.082Z,40.45
2022-08-03T22:31:58.439Z,40.54
2022-08-03T22:34:26.693Z,40.75
2022-08-03T22:36:57.842Z,41.13
2022-08-03T22:39:28.819Z,41.26
2022-08-03T22:41:59.089Z,41.43
2022-08-03T22:44:29.624Z,41.44
2022-08-03T22:46:56.277Z,41.69
2022-08-03T22:49:22.929Z,41.84
2022-08-03T22:51:51.681Z,42.16
2022-08-03T22:54:18.692Z,42.36
2022-08-03T22:56:47.031Z,42.35
2022-08-03T22:59:39.269Z,42.64
2022-08-03T23:02:15.007Z,42.31
2022-08-03T23:04:55.108Z,42.63
2022-08-03T23:07:53.544Z,42.71
2022-08-03T23:10:20.420Z,42.75
2022-08-03T23:12:49.266Z,43.03
2022-08-03T23:15:16.499Z,42.71
2022-08-03T23:17:57.233Z,43.06
2022-08-03T23:20:26.818Z,42.86
2022-08-03T23:22:55.219Z,43.44
2022-08-03T23:25:22.092Z,43.79
2022-08-03T23:28:05.593Z,43.80
2022-08-03T23:30:34.768Z,44.27
2022-08-03T23:33:03.076Z,44.46
2022-08-03T23:36:28.960Z,44.48
2022-08-03T23:38:36.817Z,44.90
2022-08-03T23:41:05.000Z,45.02
2022-08-03T23:43:45.249Z,44.76
2022-08-03T23:46:20.824Z,44.92
2022-08-03T23:48:47.388Z,44.81
2022-08-03T23:51:23.784Z,45.20
2022-08-03T23:54:18.039Z,45.05
2022-08-03T23:57:12.824Z,45.39
